CheckWX is a tool to help pilots better visualize weather data.  It is not intended as a substitute for an official pre-flight weather briefing.

05:09:21 UTC

EGNJ TAF
Humberside Airport
Grimsby, United Kingdom
TAF EGNJ 222002Z 2221/2306 22011KT 9999 FEW012 BKN025 PROB30 TEMPO 2221/2301 8000 -RA BKN012 BECMG 2301/2304 29006KT CAVOK

Mar-22@
21:00 UTC

Mar-22 @ 21:00 UTC

Mar-23@
01:00 UTC

Mar-23 @ 01:00 UTC

TAF EGNJ 222002Z 2221/2306 22011KT 9999 FEW012 BKN025

Expired

Wind
  • 220° at 11 KTS
Cloud Levels
  • Few at 1,200' AGL
  • Broken at 2,500' AGL

Mar-22@
21:00 UTC

Mar-22 @ 21:00 UTC

Mar-23@
01:00 UTC

Mar-23 @ 01:00 UTC

PROB30 TEMPO 2221/2301 8000 -RA BKN012

Expired

Conditions
Light Rain
Cloud Levels
  • Broken at 1,200' AGL

Mar-23@
01:00 UTC

Mar-23 @ 01:00 UTC

Mar-23@
06:00 UTC

Mar-23 @ 06:00 UTC

BECMG 2301/2304 29006KT CAVOK

Becoming

Becoming Conditions expected by Sat, Mar 23, 2019 @ 04:00 UTC

Wind
  • 290° at 6 KTS
Conditions
No significant weather
Cloud Levels
  • No significant clouds